Time;durP1;ratioP1;P1;durP2;ratioP2;P2;SDS_P1;SDS_P2;PMS_P1;PMS_P2;Temp;Humidity;BMP_temperature;BMP_pressure;BME280_temperature;BME280_humidity;BME280_pressure;Samples;Min_cycle;Max_cycle;Signal;HPM_P1;HPM_P2
2021/07/30 00:42:07;;;;;;;14.00;8.27;;;;;;;;;;5069051;28;20048;-78
2021/07/30 00:59:33;;;;;;;15.52;9.02;;;;;;;;;;5091907;28;20097;-76
2021/07/30 01:30:42;;;;;;;16.40;11.02;;;;;;;;;;5037335;28;20453;-77
2021/07/30 02:05:42;;;;;;;15.52;9.57;;;;;;;;;;5013150;28;20525;-77
2021/07/30 02:10:21;;;;;;;22.85;10.35;;;;;;;;;;4972697;28;20057;-78
2021/07/30 02:14:43;;;;;;;15.60;10.65;;;;;;;;;;4965084;28;20078;-77
2021/07/30 02:48:34;;;;;;;24.48;13.05;;;;;;;;;;4978027;28;20134;-78
2021/07/30 03:35:01;;;;;;;28.77;13.05;;;;;;;;;;5133908;22;20055;-70
2021/07/30 03:37:46;;;;;;;19.70;12.60;;;;;;;;;;5092939;28;20048;-70
2021/07/30 03:40:32;;;;;;;20.00;14.40;;;;;;;;;;5092551;28;20044;-70
2021/07/30 03:43:17;;;;;;;21.98;12.80;;;;;;;;;;5072489;28;20051;-70
2021/07/30 03:46:02;;;;;;;19.52;14.05;;;;;;;;;;5057303;28;20119;-71
2021/07/30 03:48:49;;;;;;;20.45;12.45;;;;;;;;;;5072489;28;20040;-71
2021/07/30 03:51:34;;;;;;;22.83;13.63;;;;;;;;;;5075276;28;20044;-71
2021/07/30 03:54:20;;;;;;;25.52;13.07;;;;;;;;;;5092509;28;20040;-71
2021/07/30 03:57:06;;;;;;;20.25;13.55;;;;;;;;;;5092457;28;20493;-71
2021/07/30 03:59:54;;;;;;;21.50;12.88;;;;;;;;;;5092373;28;20048;-71
2021/07/30 04:02:39;;;;;;;22.40;14.32;;;;;;;;;;5086266;28;20047;-71
2021/07/30 04:05:24;;;;;;;22.73;13.90;;;;;;;;;;5091822;28;20042;-70
2021/07/30 04:08:10;;;;;;;25.60;14.10;;;;;;;;;;5092352;28;20401;-70
2021/07/30 04:10:55;;;;;;;20.88;12.90;;;;;;;;;;5092069;28;20482;-70
2021/07/30 04:13:40;;;;;;;16.13;12.65;;;;;;;;;;5091401;28;20044;-70
2021/07/30 04:16:26;;;;;;;25.75;13.23;;;;;;;;;;5092208;28;20729;-70
2021/07/30 04:19:11;;;;;;;20.73;13.13;;;;;;;;;;5092241;28;20059;-70
2021/07/30 04:21:57;;;;;;;19.30;12.38;;;;;;;;;;5077058;28;20082;-70
2021/07/30 04:24:42;;;;;;;21.27;13.90;;;;;;;;;;5092091;28;20046;-71
2021/07/30 04:27:30;;;;;;;25.10;13.45;;;;;;;;;;5077346;28;20059;-71
2021/07/30 04:30:15;;;;;;;22.52;12.57;;;;;;;;;;5091874;28;20052;-71
2021/07/30 04:33:04;;;;;;;24.95;14.27;;;;;;;;;;5090881;28;20044;-71
2021/07/30 04:35:49;;;;;;;15.65;11.48;;;;;;;;;;5092127;28;20048;-70
2021/07/30 04:38:35;;;;;;;19.38;12.82;;;;;;;;;;5091980;28;20040;-69
2021/07/30 04:41:20;;;;;;;22.02;12.68;;;;;;;;;;5091821;28;20111;-71
2021/07/30 04:44:06;;;;;;;21.05;12.07;;;;;;;;;;5091144;28;20044;-71
2021/07/30 04:46:51;;;;;;;20.55;12.35;;;;;;;;;;5076745;28;20036;-70
2021/07/30 04:49:36;;;;;;;17.33;11.98;;;;;;;;;;5091681;28;20052;-71
2021/07/30 04:52:21;;;;;;;16.63;11.63;;;;;;;;;;5091925;28;20044;-70
2021/07/30 04:55:07;;;;;;;15.40;10.52;;;;;;;;;;5090696;28;20047;-70
2021/07/30 04:57:54;;;;;;;21.10;12.23;;;;;;;;;;5091899;28;20052;-70
2021/07/30 05:00:40;;;;;;;16.83;10.80;;;;;;;;;;5091475;28;20045;-70
2021/07/30 05:03:25;;;;;;;15.85;12.52;;;;;;;;;;5091472;28;20047;-72
2021/07/30 05:06:13;;;;;;;21.80;12.20;;;;;;;;;;5089623;28;20115;-71
2021/07/30 05:08:58;;;;;;;21.42;12.48;;;;;;;;;;5090168;28;20040;-70
2021/07/30 05:11:44;;;;;;;22.35;11.63;;;;;;;;;;5088588;28;20044;-70
2021/07/30 05:14:29;;;;;;;20.35;11.00;;;;;;;;;;5090034;28;20133;-72
2021/07/30 05:17:15;;;;;;;15.43;11.60;;;;;;;;;;5071706;28;20053;-71
2021/07/30 05:20:00;;;;;;;21.85;11.98;;;;;;;;;;5086682;28;20039;-71
2021/07/30 05:22:45;;;;;;;14.35;10.80;;;;;;;;;;5092509;28;20043;-71
2021/07/30 05:25:33;;;;;;;17.95;11.02;;;;;;;;;;5092929;28;20047;-71
2021/07/30 05:28:18;;;;;;;18.88;11.02;;;;;;;;;;5078412;28;20044;-71
2021/07/30 05:31:07;;;;;;;22.55;10.68;;;;;;;;;;5092403;28;20040;-71
2021/07/30 05:33:52;;;;;;;18.52;10.13;;;;;;;;;;5094197;28;20047;-72
2021/07/30 05:36:38;;;;;;;17.10;10.95;;;;;;;;;;5093412;28;20113;-71
2021/07/30 05:39:31;;;;;;;16.73;9.13;;;;;;;;;;5092234;28;20507;-71
2021/07/30 05:42:17;;;;;;;17.02;10.05;;;;;;;;;;5080056;28;20040;-70
2021/07/30 05:45:02;;;;;;;19.67;9.65;;;;;;;;;;5093306;28;20110;-70
2021/07/30 05:47:48;;;;;;;16.23;8.98;;;;;;;;;;5092925;28;20044;-71
2021/07/30 05:50:33;;;;;;;14.82;8.98;;;;;;;;;;5091400;28;20048;-71
2021/07/30 05:53:19;;;;;;;14.65;9.07;;;;;;;;;;5077483;28;20486;-71
2021/07/30 05:56:04;;;;;;;12.18;8.05;;;;;;;;;;5094096;28;20048;-71
2021/07/30 05:58:49;;;;;;;14.38;8.18;;;;;;;;;;5092894;28;20444;-71
2021/07/30 06:01:35;;;;;;;11.70;7.93;;;;;;;;;;5090939;28;20043;-71
2021/07/30 06:04:20;;;;;;;13.38;8.05;;;;;;;;;;5063550;28;20165;-71
2021/07/30 06:07:05;;;;;;;17.98;8.68;;;;;;;;;;5078077;28;20466;-71
2021/07/30 06:09:50;;;;;;;15.35;8.60;;;;;;;;;;5092500;28;20494;-72
2021/07/30 06:12:36;;;;;;;14.63;8.98;;;;;;;;;;5091598;28;20047;-71
2021/07/30 06:15:24;;;;;;;11.88;7.68;;;;;;;;;;5092719;28;20436;-71
2021/07/30 06:18:09;;;;;;;17.63;8.45;;;;;;;;;;5078247;28;20044;-71
2021/07/30 06:20:55;;;;;;;14.63;9.57;;;;;;;;;;5092694;28;20043;-71
2021/07/30 06:23:40;;;;;;;17.10;8.77;;;;;;;;;;5082118;28;20066;-71
2021/07/30 06:26:25;;;;;;;12.70;8.45;;;;;;;;;;5094400;28;20169;-70
2021/07/30 06:29:11;;;;;;;16.55;8.38;;;;;;;;;;5092568;28;20036;-71
2021/07/30 06:31:56;;;;;;;17.88;8.65;;;;;;;;;;5092700;28;20038;-71
2021/07/30 06:34:41;;;;;;;15.02;8.88;;;;;;;;;;5093762;28;20040;-72
2021/07/30 06:37:26;;;;;;;18.35;8.23;;;;;;;;;;5094297;28;20059;-70
2021/07/30 06:40:13;;;;;;;13.45;8.13;;;;;;;;;;5093893;28;20047;-70
2021/07/30 06:42:58;;;;;;;11.57;7.78;;;;;;;;;;5093257;28;20606;-71
2021/07/30 06:45:44;;;;;;;15.98;8.35;;;;;;;;;;5094008;28;20050;-71
2021/07/30 06:48:30;;;;;;;15.80;8.68;;;;;;;;;;5093912;28;20044;-71
2021/07/30 06:51:15;;;;;;;11.38;7.93;;;;;;;;;;5093491;28;20432;-72
2021/07/30 06:54:00;;;;;;;11.88;7.50;;;;;;;;;;5088980;28;20504;-71
2021/07/30 06:56:45;;;;;;;15.45;8.48;;;;;;;;;;5093777;28;20066;-70
2021/07/30 06:59:31;;;;;;;15.25;7.65;;;;;;;;;;5092211;28;20040;-71
2021/07/30 07:02:17;;;;;;;18.92;7.85;;;;;;;;;;5093539;28;20048;-70
2021/07/30 07:05:02;;;;;;;16.88;8.23;;;;;;;;;;5092545;28;20040;-71
2021/07/30 07:07:49;;;;;;;17.85;7.43;;;;;;;;;;5093465;28;20047;-71
2021/07/30 07:10:34;;;;;;;13.60;7.35;;;;;;;;;;5092244;28;20040;-72
2021/07/30 07:13:20;;;;;;;14.13;7.10;;;;;;;;;;5093268;28;20044;-71
2021/07/30 07:16:06;;;;;;;13.45;7.53;;;;;;;;;;5093253;28;20097;-72
2021/07/30 07:18:51;;;;;;;10.18;7.03;;;;;;;;;;5093409;28;20097;-72
2021/07/30 07:21:37;;;;;;;13.00;7.45;;;;;;;;;;5092055;28;20121;-72
2021/07/30 07:24:23;;;;;;;13.75;7.60;;;;;;;;;;5093180;28;20405;-71
2021/07/30 07:27:08;;;;;;;11.80;7.40;;;;;;;;;;5093221;28;20166;-71
2021/07/30 07:29:53;;;;;;;15.73;7.20;;;;;;;;;;5092002;28;20127;-70
2021/07/30 07:32:38;;;;;;;12.93;7.35;;;;;;;;;;5091795;28;20051;-71
2021/07/30 07:35:24;;;;;;;15.77;7.75;;;;;;;;;;5092839;28;20048;-73
2021/07/30 07:38:13;;;;;;;15.02;6.43;;;;;;;;;;5077882;28;20612;-72
2021/07/30 07:41:01;;;;;;;14.05;6.75;;;;;;;;;;5092314;28;20048;-72
2021/07/30 07:43:46;;;;;;;13.27;7.43;;;;;;;;;;5057465;28;20051;-65
2021/07/30 07:46:31;;;;;;;14.73;6.85;;;;;;;;;;5071154;28;20050;-65
2021/07/30 07:49:16;;;;;;;14.70;6.47;;;;;;;;;;5072343;28;20044;-64
2021/07/30 07:52:02;;;;;;;15.93;7.68;;;;;;;;;;5075286;28;20040;-65
2021/07/30 07:54:47;;;;;;;12.35;6.65;;;;;;;;;;5092671;28;20070;-64
2021/07/30 07:57:33;;;;;;;18.77;8.60;;;;;;;;;;5092632;28;20143;-64
2021/07/30 08:00:18;;;;;;;17.08;7.88;;;;;;;;;;5096157;28;20093;-64
2021/07/30 08:03:04;;;;;;;14.32;6.93;;;;;;;;;;5095910;28;20044;-65
2021/07/30 08:05:49;;;;;;;11.48;6.95;;;;;;;;;;5096256;28;20111;-64
2021/07/30 08:08:35;;;;;;;10.70;6.72;;;;;;;;;;5096595;28;20044;-65
2021/07/30 08:11:20;;;;;;;12.30;6.72;;;;;;;;;;5092383;28;20044;-64
2021/07/30 08:14:05;;;;;;;15.13;7.60;;;;;;;;;;5090962;28;20063;-65
2021/07/30 08:16:51;;;;;;;11.93;6.53;;;;;;;;;;5092213;28;20735;-65
2021/07/30 08:19:37;;;;;;;13.73;6.40;;;;;;;;;;5092100;28;20418;-64
2021/07/30 08:22:22;;;;;;;11.07;5.93;;;;;;;;;;5092237;28;20047;-64
2021/07/30 08:25:07;;;;;;;13.43;5.50;;;;;;;;;;5091788;28;20048;-64
2021/07/30 08:27:53;;;;;;;18.63;7.15;;;;;;;;;;5092245;28;20125;-65
2021/07/30 08:30:38;;;;;;;17.05;6.30;;;;;;;;;;5091875;28;20048;-64
2021/07/30 08:33:23;;;;;;;11.25;4.93;;;;;;;;;;5091743;28;20052;-65
2021/07/30 08:36:09;;;;;;;13.68;5.28;;;;;;;;;;5094254;28;20058;-65
2021/07/30 08:38:55;;;;;;;10.60;5.22;;;;;;;;;;5093646;28;20141;-65
2021/07/30 08:41:41;;;;;;;8.63;5.53;;;;;;;;;;5091809;28;20048;-64
2021/07/30 08:44:26;;;;;;;12.88;6.18;;;;;;;;;;5091099;28;20048;-64
2021/07/30 08:47:11;;;;;;;10.77;5.32;;;;;;;;;;5091003;28;20043;-64
2021/07/30 08:49:57;;;;;;;11.70;5.72;;;;;;;;;;5090653;28;20409;-65
2021/07/30 08:52:43;;;;;;;10.68;5.30;;;;;;;;;;5094892;28;20048;-64
2021/07/30 08:55:32;;;;;;;11.65;6.15;;;;;;;;;;5085512;28;20048;-64
2021/07/30 08:58:17;;;;;;;12.23;5.70;;;;;;;;;;5095999;28;20145;-64
2021/07/30 09:01:03;;;;;;;12.15;4.95;;;;;;;;;;5094841;28;20044;-64
2021/07/30 09:03:48;;;;;;;17.38;6.35;;;;;;;;;;5095931;28;20048;-65
2021/07/30 09:06:33;;;;;;;11.77;4.45;;;;;;;;;;5095685;28;20036;-65
2021/07/30 09:09:18;;;;;;;7.60;4.32;;;;;;;;;;5095889;28;20056;-65
2021/07/30 09:12:05;;;;;;;12.55;4.95;;;;;;;;;;5094110;28;20043;-64
2021/07/30 09:14:50;;;;;;;11.55;5.30;;;;;;;;;;5095646;28;20051;-65
2021/07/30 09:17:41;;;;;;;11.20;5.55;;;;;;;;;;5096532;28;20447;-64
2021/07/30 09:20:26;;;;;;;10.32;5.30;;;;;;;;;;5095396;28;20059;-64
2021/07/30 09:23:14;;;;;;;10.52;4.70;;;;;;;;;;5093655;28;20133;-64
2021/07/30 09:25:59;;;;;;;10.32;5.32;;;;;;;;;;5094408;28;20048;-65
2021/07/30 09:28:54;;;;;;;10.63;4.80;;;;;;;;;;5096540;28;20040;-65
2021/07/30 09:31:40;;;;;;;8.10;4.72;;;;;;;;;;5095366;28;20518;-65
2021/07/30 09:34:29;;;;;;;9.35;4.63;;;;;;;;;;5136410;22;20101;-64
2021/07/30 09:37:22;;;;;;;9.52;5.20;;;;;;;;;;5095301;28;20497;-65
2021/07/30 09:40:07;;;;;;;10.45;4.55;;;;;;;;;;5095751;28;20067;-64
2021/07/30 09:42:53;;;;;;;8.23;4.50;;;;;;;;;;5080697;28;20047;-64
2021/07/30 09:45:38;;;;;;;11.98;4.88;;;;;;;;;;5094161;28;20409;-65
2021/07/30 09:48:27;;;;;;;12.60;4.70;;;;;;;;;;5096330;28;20044;-64
2021/07/30 09:51:14;;;;;;;11.65;5.15;;;;;;;;;;5095361;28;20490;-65
2021/07/30 09:53:59;;;;;;;8.82;4.57;;;;;;;;;;5094967;28;20052;-65
2021/07/30 09:56:45;;;;;;;11.35;4.35;;;;;;;;;;5083113;28;20051;-65
2021/07/30 09:59:31;;;;;;;6.43;3.80;;;;;;;;;;5079408;28;20135;-64
2021/07/30 10:02:17;;;;;;;8.57;4.65;;;;;;;;;;5081592;28;20472;-64
2021/07/30 10:05:03;;;;;;;7.00;3.88;;;;;;;;;;5096240;28;20440;-64
2021/07/30 10:07:48;;;;;;;9.30;3.85;;;;;;;;;;5095912;28;20044;-64
2021/07/30 10:10:33;;;;;;;7.57;3.90;;;;;;;;;;5095368;28;20051;-65
2021/07/30 10:13:24;;;;;;;6.93;3.70;;;;;;;;;;5095699;28;20117;-64
2021/07/30 10:16:10;;;;;;;7.05;3.67;;;;;;;;;;5093940;28;20094;-64
2021/07/30 10:18:55;;;;;;;10.38;4.30;;;;;;;;;;5093429;28;20563;-64
2021/07/30 10:21:40;;;;;;;10.60;3.88;;;;;;;;;;5093203;28;20085;-64
2021/07/30 10:24:26;;;;;;;7.60;3.75;;;;;;;;;;5097084;28;20276;-65
2021/07/30 10:27:11;;;;;;;9.40;4.70;;;;;;;;;;5094423;28;20040;-64
2021/07/30 10:30:06;;;;;;;8.52;3.88;;;;;;;;;;5094690;28;20062;-65
2021/07/30 10:32:58;;;;;;;10.90;3.92;;;;;;;;;;5094261;28;20097;-64
2021/07/30 10:35:43;;;;;;;8.27;3.63;;;;;;;;;;5093944;28;20044;-64
2021/07/30 10:38:29;;;;;;;11.63;4.60;;;;;;;;;;5092460;28;20110;-64
2021/07/30 10:41:14;;;;;;;8.85;3.42;;;;;;;;;;5094617;28;20056;-65
2021/07/30 10:44:00;;;;;;;6.13;3.88;;;;;;;;;;5094153;28;20052;-65
2021/07/30 10:46:45;;;;;;;9.27;3.35;;;;;;;;;;5095870;28;20055;-64
2021/07/30 10:49:37;;;;;;;6.88;3.45;;;;;;;;;;5058495;28;20562;-65
2021/07/30 10:52:26;;;;;;;9.23;3.58;;;;;;;;;;5075038;28;20044;-65
2021/07/30 10:55:11;;;;;;;6.82;3.75;;;;;;;;;;5073722;28;20125;-65
2021/07/30 10:57:57;;;;;;;10.18;3.95;;;;;;;;;;5084143;28;20048;-64
2021/07/30 11:00:55;;;;;;;10.77;4.07;;;;;;;;;;5096259;28;20052;-64
2021/07/30 11:03:52;;;;;;;7.18;3.97;;;;;;;;;;5093841;28;20197;-65
2021/07/30 11:06:37;;;;;;;6.85;3.47;;;;;;;;;;5094278;28;20071;-65
2021/07/30 11:09:24;;;;;;;8.70;3.42;;;;;;;;;;5092448;28;20514;-64
2021/07/30 11:12:12;;;;;;;8.18;3.65;;;;;;;;;;5093633;28;20047;-65
2021/07/30 11:14:57;;;;;;;6.63;3.22;;;;;;;;;;5093573;28;20074;-65
2021/07/30 11:17:42;;;;;;;8.45;3.67;;;;;;;;;;5076959;28;20149;-65
2021/07/30 11:20:34;;;;;;;7.88;3.75;;;;;;;;;;5093309;28;20036;-64
2021/07/30 11:23:21;;;;;;;7.13;3.15;;;;;;;;;;5093219;28;20040;-65
2021/07/30 11:26:06;;;;;;;6.00;2.88;;;;;;;;;;5091118;28;20044;-65
2021/07/30 11:29:01;;;;;;;6.13;3.40;;;;;;;;;;5093343;28;20056;-65
2021/07/30 11:31:54;;;;;;;6.80;2.72;;;;;;;;;;5092868;28;20047;-65
2021/07/30 11:34:40;;;;;;;4.68;3.10;;;;;;;;;;5092790;28;20074;-65
2021/07/30 11:37:26;;;;;;;5.32;3.40;;;;;;;;;;5093004;28;20520;-64
2021/07/30 11:40:15;;;;;;;4.93;2.65;;;;;;;;;;5094108;28;20178;-65
2021/07/30 11:43:07;;;;;;;5.90;2.60;;;;;;;;;;5093792;28;20585;-65
2021/07/30 11:45:53;;;;;;;4.78;2.13;;;;;;;;;;5091525;28;20052;-64
2021/07/30 11:48:38;;;;;;;4.78;2.70;;;;;;;;;;5092699;28;20048;-65
2021/07/30 11:51:23;;;;;;;5.30;2.70;;;;;;;;;;5092384;28;20094;-65
2021/07/30 11:54:09;;;;;;;6.03;3.17;;;;;;;;;;5093190;28;20048;-65
2021/07/30 11:56:54;;;;;;;5.15;3.00;;;;;;;;;;5078957;28;20050;-65
2021/07/30 11:59:43;;;;;;;10.10;2.97;;;;;;;;;;5095016;28;20066;-65
2021/07/30 12:02:28;;;;;;;5.47;2.60;;;;;;;;;;5097288;28;20581;-65
2021/07/30 12:05:13;;;;;;;6.00;2.10;;;;;;;;;;5091307;28;20040;-65
2021/07/30 12:07:59;;;;;;;8.48;2.40;;;;;;;;;;5092398;28;20048;-65
2021/07/30 12:10:45;;;;;;;6.65;2.75;;;;;;;;;;5091207;28;20047;-65
2021/07/30 12:13:31;;;;;;;7.50;2.70;;;;;;;;;;5091484;28;20054;-64
2021/07/30 12:16:16;;;;;;;5.03;1.92;;;;;;;;;;5090809;28;20100;-64
2021/07/30 12:19:01;;;;;;;6.50;2.25;;;;;;;;;;5093601;28;20051;-65
2021/07/30 12:21:56;;;;;;;6.18;2.05;;;;;;;;;;5092878;28;20055;-64
2021/07/30 12:24:48;;;;;;;5.97;2.22;;;;;;;;;;5094308;28;20113;-65
2021/07/30 12:27:34;;;;;;;6.03;2.22;;;;;;;;;;5091103;28;20037;-64
2021/07/30 12:30:26;;;;;;;2.92;2.13;;;;;;;;;;5092103;28;20040;-65
2021/07/30 12:33:24;;;;;;;2.15;1.70;;;;;;;;;;5092030;28;20051;-65
2021/07/30 12:36:09;;;;;;;6.60;2.00;;;;;;;;;;5092064;28;20047;-65
2021/07/30 12:39:03;;;;;;;8.75;2.42;;;;;;;;;;5072780;28;20102;-64
2021/07/30 12:41:52;;;;;;;3.88;2.28;;;;;;;;;;5073063;28;20056;-65
2021/07/30 12:44:37;;;;;;;5.00;2.70;;;;;;;;;;5071907;28;20052;-65
2021/07/30 12:47:22;;;;;;;5.47;2.95;;;;;;;;;;5079640;28;20043;-65
2021/07/30 12:50:27;;;;;;;6.30;2.95;;;;;;;;;;5093295;28;20530;-64
2021/07/30 12:53:17;;;;;;;5.72;2.63;;;;;;;;;;5092896;28;20125;-65
2021/07/30 12:56:06;;;;;;;5.15;2.45;;;;;;;;;;5093086;28;20132;-65
2021/07/30 12:58:53;;;;;;;6.13;3.03;;;;;;;;;;5091531;28;20056;-65
2021/07/30 13:01:38;;;;;;;7.43;3.22;;;;;;;;;;5091886;28;20054;-64
2021/07/30 13:04:23;;;;;;;9.60;2.55;;;;;;;;;;5091652;28;20051;-65
2021/07/30 13:07:09;;;;;;;7.03;2.90;;;;;;;;;;5091868;28;20051;-65
2021/07/30 13:09:55;;;;;;;6.95;3.50;;;;;;;;;;5092273;28;20501;-65
2021/07/30 13:12:40;;;;;;;6.07;3.15;;;;;;;;;;5093836;28;20076;-64
2021/07/30 13:15:25;;;;;;;7.88;2.90;;;;;;;;;;5093273;28;20177;-65
2021/07/30 13:18:11;;;;;;;6.00;3.25;;;;;;;;;;5093288;28;20054;-64
2021/07/30 13:20:57;;;;;;;6.20;3.20;;;;;;;;;;5093605;28;20121;-65
2021/07/30 13:23:41;;;;;;;7.00;3.30;;;;;;;;;;5092513;28;20146;-64
2021/07/30 13:26:27;;;;;;;6.25;3.63;;;;;;;;;;5093232;28;20113;-65
2021/07/30 13:29:12;;;;;;;7.75;2.92;;;;;;;;;;5090531;28;20044;-64
2021/07/30 13:31:58;;;;;;;7.93;3.35;;;;;;;;;;5092399;28;20044;-65
2021/07/30 13:34:43;;;;;;;7.40;3.17;;;;;;;;;;5091507;28;20047;-65
2021/07/30 13:37:28;;;;;;;7.07;3.70;;;;;;;;;;5091528;28;20506;-64
2021/07/30 13:40:14;;;;;;;7.43;3.00;;;;;;;;;;5096044;28;20040;-64
2021/07/30 13:43:08;;;;;;;5.50;3.42;;;;;;;;;;5096091;28;20113;-64
2021/07/30 13:45:53;;;;;;;6.40;3.53;;;;;;;;;;5096753;28;20102;-65
2021/07/30 13:48:39;;;;;;;7.22;3.58;;;;;;;;;;5094346;28;20039;-64
2021/07/30 13:51:25;;;;;;;6.97;3.50;;;;;;;;;;5077319;28;20067;-65
2021/07/30 13:54:10;;;;;;;7.65;4.38;;;;;;;;;;5075257;28;20051;-64
2021/07/30 13:56:55;;;;;;;8.75;3.88;;;;;;;;;;5075962;28;20048;-64
2021/07/30 13:59:41;;;;;;;8.30;3.85;;;;;;;;;;5079573;28;20497;-65
2021/07/30 14:02:26;;;;;;;7.82;3.55;;;;;;;;;;5096176;28;20047;-65
2021/07/30 14:05:12;;;;;;;7.05;4.50;;;;;;;;;;5094831;28;20059;-64
2021/07/30 14:07:57;;;;;;;6.28;4.60;;;;;;;;;;5094705;28;20055;-64
2021/07/30 14:10:45;;;;;;;8.25;4.20;;;;;;;;;;5093208;28;20462;-65
2021/07/30 14:13:30;;;;;;;7.30;4.40;;;;;;;;;;5095624;28;20052;-64
2021/07/30 14:16:16;;;;;;;5.50;4.00;;;;;;;;;;5095547;28;20051;-65
2021/07/30 14:19:02;;;;;;;6.03;4.07;;;;;;;;;;5094595;28;20525;-64
2021/07/30 14:21:47;;;;;;;7.20;3.55;;;;;;;;;;5093768;28;20181;-65
2021/07/30 14:24:32;;;;;;;9.25;4.30;;;;;;;;;;5093533;28;20048;-64
2021/07/30 14:27:18;;;;;;;11.10;4.25;;;;;;;;;;5096354;28;20051;-65
2021/07/30 14:30:03;;;;;;;6.05;4.43;;;;;;;;;;5094966;28;20041;-65
2021/07/30 14:32:48;;;;;;;6.97;4.28;;;;;;;;;;5094924;28;20052;-65
2021/07/30 14:35:34;;;;;;;5.85;4.40;;;;;;;;;;5094556;28;20531;-64
2021/07/30 14:38:19;;;;;;;5.78;3.95;;;;;;;;;;5094851;28;20052;-64
2021/07/30 14:41:04;;;;;;;5.47;4.07;;;;;;;;;;5091076;28;20044;-64
2021/07/30 14:43:50;;;;;;;6.10;4.10;;;;;;;;;;5095249;28;20040;-65
2021/07/30 14:46:36;;;;;;;5.38;3.75;;;;;;;;;;5094179;28;20044;-64
2021/07/30 14:49:22;;;;;;;6.13;4.28;;;;;;;;;;5095379;28;20048;-64
2021/07/30 14:52:08;;;;;;;6.35;3.85;;;;;;;;;;5093090;28;20539;-64
2021/07/30 14:54:53;;;;;;;5.93;4.25;;;;;;;;;;5094596;28;20055;-64
2021/07/30 14:57:39;;;;;;;6.30;4.40;;;;;;;;;;5095473;28;20052;-65
2021/07/30 15:00:24;;;;;;;6.28;4.35;;;;;;;;;;5093834;28;20070;-65
2021/07/30 15:03:11;;;;;;;7.88;3.90;;;;;;;;;;5093573;28;20044;-64
2021/07/30 15:05:57;;;;;;;6.55;4.05;;;;;;;;;;5093482;28;20498;-64
2021/07/30 15:08:42;;;;;;;5.15;3.97;;;;;;;;;;5093666;28;20517;-64
2021/07/30 15:11:28;;;;;;;7.22;4.38;;;;;;;;;;5092298;28;20097;-64
2021/07/30 15:14:13;;;;;;;5.88;4.15;;;;;;;;;;5093820;28;20055;-65
2021/07/30 15:17:01;;;;;;;6.00;3.60;;;;;;;;;;5095110;28;20118;-65
2021/07/30 15:19:46;;;;;;;7.50;3.83;;;;;;;;;;5093520;28;20054;-65
2021/07/30 15:22:31;;;;;;;4.43;3.85;;;;;;;;;;5094736;28;20516;-65
2021/07/30 15:25:16;;;;;;;8.82;4.55;;;;;;;;;;5092502;28;20166;-72
2021/07/30 15:28:02;;;;;;;8.23;4.85;;;;;;;;;;5092585;28;20050;-65
2021/07/30 15:30:47;;;;;;;4.95;4.32;;;;;;;;;;5093356;28;20048;-65
2021/07/30 15:33:33;;;;;;;6.05;4.38;;;;;;;;;;5093068;28;20059;-65
2021/07/30 15:36:18;;;;;;;5.75;4.55;;;;;;;;;;5093374;28;20154;-65
2021/07/30 15:39:04;;;;;;;11.35;4.90;;;;;;;;;;5078213;28;20410;-65
2021/07/30 15:41:50;;;;;;;7.10;4.50;;;;;;;;;;5091841;28;20093;-65
2021/07/30 15:44:35;;;;;;;7.78;4.20;;;;;;;;;;5092904;28;20115;-65
2021/07/30 15:47:20;;;;;;;5.03;4.60;;;;;;;;;;5106141;28;20043;-65
2021/07/30 15:50:06;;;;;;;9.90;5.75;;;;;;;;;;5092705;28;20044;-64
2021/07/30 15:52:52;;;;;;;9.82;6.00;;;;;;;;;;5088963;28;20040;-65
2021/07/30 15:55:37;;;;;;;9.80;6.75;;;;;;;;;;5092208;28;20169;-64
2021/07/30 15:58:22;;;;;;;14.73;7.78;;;;;;;;;;5076882;28;20047;-64
2021/07/30 16:01:08;;;;;;;9.80;8.70;;;;;;;;;;5093027;28;20528;-65
2021/07/30 16:03:54;;;;;;;11.90;9.30;;;;;;;;;;5092466;28;20048;-64
2021/07/30 16:06:39;;;;;;;13.50;10.55;;;;;;;;;;5092978;28;20194;-64
2021/07/30 16:09:25;;;;;;;16.08;11.00;;;;;;;;;;5092145;28;20043;-64
2021/07/30 16:12:10;;;;;;;16.48;12.23;;;;;;;;;;5093635;28;20501;-64
2021/07/30 16:14:55;;;;;;;15.05;11.75;;;;;;;;;;5093157;28;20493;-64
2021/07/30 16:17:41;;;;;;;17.15;13.10;;;;;;;;;;5091518;28;20063;-64
2021/07/30 16:20:26;;;;;;;15.82;13.95;;;;;;;;;;5090336;28;20123;-64
2021/07/30 16:23:13;;;;;;;13.77;12.38;;;;;;;;;;5090765;28;20520;-64
2021/07/30 16:25:58;;;;;;;17.40;13.85;;;;;;;;;;5092718;28;20051;-64
2021/07/30 16:28:44;;;;;;;17.00;15.20;;;;;;;;;;5092633;28;20048;-64
2021/07/30 16:31:29;;;;;;;19.15;17.27;;;;;;;;;;5091230;28;20050;-64
2021/07/30 16:34:15;;;;;;;19.30;17.27;;;;;;;;;;5091254;28;20505;-64
2021/07/30 16:37:00;;;;;;;19.95;17.85;;;;;;;;;;5094570;28;20047;-64
2021/07/30 16:39:45;;;;;;;19.58;17.60;;;;;;;;;;5092605;28;20177;-65
2021/07/30 16:42:31;;;;;;;20.13;18.08;;;;;;;;;;5092320;28;20043;-65
2021/07/30 16:45:16;;;;;;;22.38;18.25;;;;;;;;;;5090275;28;20046;-64
2021/07/30 16:48:04;;;;;;;17.50;15.70;;;;;;;;;;5091597;28;20047;-64
2021/07/30 16:50:50;;;;;;;17.65;15.82;;;;;;;;;;5091680;28;20052;-64
2021/07/30 16:53:35;;;;;;;17.55;15.75;;;;;;;;;;5092632;28;20051;-64
2021/07/30 16:56:20;;;;;;;17.63;15.82;;;;;;;;;;5073783;28;20106;-64
2021/07/30 16:59:06;;;;;;;17.30;15.50;;;;;;;;;;5073459;28;20059;-64
2021/07/30 17:01:51;;;;;;;18.00;16.25;;;;;;;;;;5087649;28;20046;-64
2021/07/30 17:04:36;;;;;;;17.95;16.13;;;;;;;;;;5092158;28;20062;-63
2021/07/30 17:07:22;;;;;;;18.13;16.23;;;;;;;;;;5092205;28;20051;-64
2021/07/30 17:10:07;;;;;;;18.45;16.75;;;;;;;;;;5092213;28;20040;-64
2021/07/30 17:12:53;;;;;;;18.50;16.60;;;;;;;;;;5093927;28;20055;-64
2021/07/30 17:15:39;;;;;;;18.67;15.85;;;;;;;;;;5094805;28;20071;-64
2021/07/30 17:18:24;;;;;;;20.92;18.75;;;;;;;;;;5095659;28;20063;-64
2021/07/30 17:21:10;;;;;;;20.00;17.90;;;;;;;;;;5096105;28;20202;-64
2021/07/30 17:23:55;;;;;;;20.67;18.65;;;;;;;;;;5097176;28;20047;-64
2021/07/30 17:26:41;;;;;;;19.65;17.58;;;;;;;;;;5095481;28;20051;-64
2021/07/30 17:29:26;;;;;;;20.63;18.63;;;;;;;;;;5095831;28;20044;-64
2021/07/30 17:32:11;;;;;;;21.92;19.73;;;;;;;;;;5096269;28;20047;-64
2021/07/30 17:34:56;;;;;;;21.95;19.52;;;;;;;;;;5095008;28;20055;-64
2021/07/30 17:37:42;;;;;;;8.55;7.57;;;;;;;;;;5076785;28;20142;-64
2021/07/30 17:40:27;;;;;;;2.38;2.10;;;;;;;;;;5084653;28;20392;-64
2021/07/30 17:43:12;;;;;;;3.85;2.33;;;;;;;;;;5092397;28;20101;-64
2021/07/30 17:45:57;;;;;;;2.72;1.95;;;;;;;;;;5092390;28;20065;-63
2021/07/30 17:48:43;;;;;;;3.25;1.45;;;;;;;;;;5093143;28;20047;-64
2021/07/30 17:51:29;;;;;;;3.67;1.50;;;;;;;;;;5094465;28;20040;-64
2021/07/30 17:54:14;;;;;;;1.98;1.52;;;;;;;;;;5094919;28;20042;-64
2021/07/30 17:57:00;;;;;;;3.33;1.65;;;;;;;;;;5094987;28;20118;-64
2021/07/30 17:59:48;;;;;;;4.13;1.30;;;;;;;;;;5083015;28;20059;-64
2021/07/30 18:02:34;;;;;;;3.15;1.20;;;;;;;;;;5103071;28;20150;-63
2021/07/30 18:05:19;;;;;;;10.35;1.50;;;;;;;;;;5095688;28;20040;-63
2021/07/30 18:08:05;;;;;;;1.85;1.17;;;;;;;;;;5094171;28;20046;-63
2021/07/30 18:10:50;;;;;;;3.15;1.30;;;;;;;;;;5092337;28;20051;-63
2021/07/30 18:13:35;;;;;;;4.50;2.00;;;;;;;;;;5076191;28;20522;-63
2021/07/30 18:16:20;;;;;;;2.80;1.60;;;;;;;;;;5088446;28;20096;-63
2021/07/30 18:19:06;;;;;;;2.70;1.50;;;;;;;;;;5092846;28;20054;-62
2021/07/30 18:21:51;;;;;;;3.80;2.08;;;;;;;;;;5095809;28;20040;-63
2021/07/30 18:24:36;;;;;;;2.78;1.73;;;;;;;;;;5093881;28;20059;-63
2021/07/30 18:27:21;;;;;;;1.55;1.45;;;;;;;;;;5076738;28;20141;-62
2021/07/30 18:30:07;;;;;;;3.33;1.50;;;;;;;;;;5074506;28;20053;-62
2021/07/30 18:32:52;;;;;;;2.78;1.77;;;;;;;;;;5086089;28;20129;-63
2021/07/30 18:35:38;;;;;;;3.80;1.95;;;;;;;;;;5109463;28;20055;-63
2021/07/30 18:38:23;;;;;;;3.42;1.85;;;;;;;;;;5091413;28;20040;-63
2021/07/30 18:41:09;;;;;;;3.35;2.08;;;;;;;;;;5090684;28;20070;-63
2021/07/30 18:43:58;;;;;;;3.10;1.85;;;;;;;;;;5083518;28;20098;-63
2021/07/30 18:46:43;;;;;;;3.10;1.88;;;;;;;;;;5074057;28;20044;-63
2021/07/30 18:49:28;;;;;;;2.47;1.88;;;;;;;;;;5090759;28;20062;-63
2021/07/30 18:52:14;;;;;;;2.85;1.75;;;;;;;;;;5090340;28;20131;-63
2021/07/30 18:54:59;;;;;;;3.58;1.80;;;;;;;;;;5091717;28;20054;-63
2021/07/30 18:57:45;;;;;;;4.22;1.67;;;;;;;;;;5087812;28;20508;-63
2021/07/30 19:00:30;;;;;;;4.10;1.63;;;;;;;;;;5087186;28;20105;-63
2021/07/30 19:03:15;;;;;;;3.53;1.73;;;;;;;;;;5090583;28;20048;-63
2021/07/30 19:06:01;;;;;;;5.10;1.77;;;;;;;;;;5091142;28;20075;-63
2021/07/30 19:08:46;;;;;;;4.47;1.80;;;;;;;;;;5090182;28;20059;-63
2021/07/30 19:11:32;;;;;;;3.75;1.50;;;;;;;;;;5089526;28;20094;-63
2021/07/30 19:14:17;;;;;;;3.65;1.60;;;;;;;;;;5085317;28;20132;-63
2021/07/30 19:17:02;;;;;;;3.22;1.90;;;;;;;;;;5091175;28;20047;-64
2021/07/30 19:19:48;;;;;;;3.63;1.88;;;;;;;;;;5089801;28;20502;-63
2021/07/30 19:22:34;;;;;;;2.35;1.75;;;;;;;;;;5090195;28;20125;-63
2021/07/30 19:25:20;;;;;;;4.25;2.05;;;;;;;;;;5089396;28;20897;-63
2021/07/30 19:28:05;;;;;;;3.03;1.70;;;;;;;;;;5090284;28;20043;-63
2021/07/30 19:30:50;;;;;;;5.70;1.70;;;;;;;;;;5088351;28;20060;-64
2021/07/30 19:33:38;;;;;;;2.15;1.65;;;;;;;;;;5089170;28;20079;-63
2021/07/30 19:36:24;;;;;;;2.85;1.60;;;;;;;;;;5088701;28;20048;-63
2021/07/30 19:39:12;;;;;;;2.88;1.63;;;;;;;;;;5089402;28;20494;-63